Time;durP1;ratioP1;P1;durP2;ratioP2;P2;SDS_P1;SDS_P2;PMS_P1;PMS_P2;Temp;Humidity;BMP_temperature;BMP_pressure;BME280_temperature;BME280_humidity;BME280_pressure;Samples;Min_cycle;Max_cycle;Signal;HPM_P1;HPM_P2
2021/09/23 00:00:24;;;;;;;8.30;3.55;;;;;;;7.59;100.00;99797.78;5051204;28;20057;-80
2021/09/23 00:03:13;;;;;;;8.73;2.97;;;;;;;7.51;100.00;99803.09;5052011;28;20098;-80
2021/09/23 00:05:41;;;;;;;4.38;2.53;;;;;;;7.42;100.00;99786.75;5051404;28;20060;-80
2021/09/23 00:08:09;;;;;;;5.40;2.78;;;;;;;7.40;100.00;99786.03;5050291;28;20044;-80
2021/09/23 00:10:38;;;;;;;4.82;2.97;;;;;;;7.46;100.00;99787.31;5051488;28;20128;-79
2021/09/23 00:13:06;;;;;;;7.78;3.28;;;;;;;7.55;100.00;99793.66;5051068;28;20127;-80
2021/09/23 00:15:35;;;;;;;3.22;2.60;;;;;;;7.48;99.43;99789.84;5050752;28;20103;-80
2021/09/23 00:18:05;;;;;;;3.80;2.42;;;;;;;7.37;100.00;99780.94;5051371;28;20048;-80
2021/09/23 00:20:34;;;;;;;4.60;2.80;;;;;;;7.29;99.70;99778.13;5051621;28;20542;-80
2021/09/23 00:23:02;;;;;;;3.85;2.90;;;;;;;7.46;99.41;99794.56;5051347;28;20044;-80
2021/09/23 00:25:29;;;;;;;3.70;2.90;;;;;;;7.30;99.58;99765.44;5054475;28;20053;-80
2021/09/23 00:27:58;;;;;;;4.10;2.63;;;;;;;7.26;99.35;99768.44;5055373;28;20044;-79
2021/09/23 00:30:26;;;;;;;3.63;2.58;;;;;;;7.19;99.46;99778.16;5054406;28;20057;-79
2021/09/23 00:32:52;;;;;;;4.35;2.72;;;;;;;7.04;99.49;99783.19;5055099;28;20099;-79
2021/09/23 00:35:20;;;;;;;3.90;3.03;;;;;;;7.14;99.81;99785.88;5053575;28;20452;-79
2021/09/23 00:37:47;;;;;;;4.10;2.90;;;;;;;7.07;99.28;99793.69;5054943;28;20049;-80
2021/09/23 00:40:17;;;;;;;4.97;2.90;;;;;;;7.03;99.70;99796.84;5054230;28;20099;-79
2021/09/23 00:42:47;;;;;;;3.60;3.00;;;;;;;6.95;100.00;99784.06;5054407;28;20071;-79
2021/09/23 00:45:16;;;;;;;4.22;3.10;;;;;;;7.06;99.86;99789.31;5054597;28;20055;-80
2021/09/23 00:47:43;;;;;;;4.97;2.67;;;;;;;6.89;99.82;99773.84;5054391;28;20103;-79
2021/09/23 00:50:11;;;;;;;5.90;3.90;;;;;;;6.85;99.88;99792.22;5055158;28;20057;-80
2021/09/23 00:52:39;;;;;;;4.75;3.40;;;;;;;6.86;100.00;99784.94;5054812;28;20087;-80
2021/09/23 00:55:08;;;;;;;5.22;3.20;;;;;;;6.71;100.00;99774.63;5054540;28;20049;-80
2021/09/23 00:57:36;;;;;;;8.02;3.05;;;;;;;6.68;100.00;99777.56;5054073;28;20412;-80
2021/09/23 01:00:05;;;;;;;4.32;3.03;;;;;;;6.78;100.00;99803.75;5054452;28;20530;-79
2021/09/23 01:02:32;;;;;;;4.63;3.30;;;;;;;6.85;100.00;99807.56;5054673;28;20061;-80
2021/09/23 01:04:59;;;;;;;4.97;3.78;;;;;;;6.81;100.00;99801.59;5054420;28;20057;-80
2021/09/23 01:07:26;;;;;;;6.72;4.00;;;;;;;6.66;99.82;99782.28;5054420;28;20049;-80
2021/09/23 01:09:55;;;;;;;7.18;3.80;;;;;;;6.89;99.46;99795.47;5054636;28;20048;-80
2021/09/23 01:12:23;;;;;;;7.30;3.72;;;;;;;6.88;99.40;99772.13;5054544;28;20057;-79
2021/09/23 01:14:53;;;;;;;7.03;3.67;;;;;;;6.79;100.00;99791.94;5053485;28;20103;-80
2021/09/23 01:17:20;;;;;;;6.80;3.23;;;;;;;6.63;100.00;99785.28;5053158;28;20048;-80
2021/09/23 01:19:47;;;;;;;5.88;3.42;;;;;;;6.79;100.00;99800.03;5054280;28;20292;-79
2021/09/23 01:22:16;;;;;;;5.28;3.40;;;;;;;6.78;100.00;99791.09;5054349;28;20654;-80
2021/09/23 01:24:43;;;;;;;5.50;3.22;;;;;;;6.86;99.96;99782.25;5053739;28;20049;-79
2021/09/23 01:27:11;;;;;;;3.78;2.80;;;;;;;6.82;99.64;99778.13;5053850;28;20103;-79
2021/09/23 01:29:39;;;;;;;3.92;3.00;;;;;;;6.67;100.00;99759.69;5053939;28;20049;-79
2021/09/23 01:32:07;;;;;;;5.10;3.42;;;;;;;6.61;99.81;99770.19;5053547;28;20114;-79
2021/09/23 01:34:34;;;;;;;9.77;3.90;;;;;;;6.70;99.55;99775.59;5053311;28;20500;-79
2021/09/23 01:37:01;;;;;;;5.35;3.78;;;;;;;6.78;98.71;99790.25;5053085;28;20048;-80
2021/09/23 01:39:30;;;;;;;5.97;3.33;;;;;;;6.78;98.21;99776.72;5053851;28;20044;-79
2021/09/23 01:41:58;;;;;;;4.25;2.83;;;;;;;6.69;98.46;99775.75;5053667;28;20056;-79
2021/09/23 01:44:24;;;;;;;6.72;3.45;;;;;;;6.45;99.31;99765.41;5053455;28;20045;-79
2021/09/23 01:46:52;;;;;;;5.13;3.20;;;;;;;6.33;99.32;99765.53;5053303;28;20049;-80
2021/09/23 01:49:19;;;;;;;6.30;3.45;;;;;;;6.36;99.40;99769.81;5053863;28;20044;-80
2021/09/23 01:51:46;;;;;;;7.65;3.05;;;;;;;6.45;99.42;99771.66;5053789;28;20057;-79
2021/09/23 01:54:13;;;;;;;4.75;3.00;;;;;;;6.57;99.85;99769.66;5052974;28;20037;-79
2021/09/23 01:56:41;;;;;;;6.43;3.40;;;;;;;6.38;99.33;99755.19;5053199;28;20492;-80
2021/09/23 01:59:08;;;;;;;4.05;3.10;;;;;;;6.33;99.17;99767.41;5053336;28;20044;-80
2021/09/23 02:01:35;;;;;;;5.50;3.30;;;;;;;6.26;99.36;99755.44;5053540;28;20060;-80
2021/09/23 02:04:02;;;;;;;7.20;3.67;;;;;;;6.27;100.00;99765.25;5053273;28;20102;-79
2021/09/23 02:06:28;;;;;;;4.53;3.17;;;;;;;6.17;100.00;99752.63;5052891;28;20053;-79
2021/09/23 02:08:55;;;;;;;8.80;3.45;;;;;;;6.22;100.00;99764.81;5053753;28;20045;-79
2021/09/23 02:11:22;;;;;;;5.60;3.53;;;;;;;6.17;99.72;99757.16;5052792;28;20114;-79
2021/09/23 02:13:50;;;;;;;5.10;3.75;;;;;;;6.36;99.71;99767.94;5053600;28;20045;-79
2021/09/23 02:16:17;;;;;;;6.28;2.97;;;;;;;6.45;98.89;99765.41;5051889;28;20052;-79
2021/09/23 02:18:44;;;;;;;4.20;3.33;;;;;;;6.23;99.10;99750.34;5053085;28;20100;-80
2021/09/23 02:21:11;;;;;;;4.97;3.63;;;;;;;6.10;99.80;99729.88;5052646;28;20064;-79
2021/09/23 02:23:38;;;;;;;5.20;3.58;;;;;;;6.30;99.68;99760.41;5053180;28;20049;-79
2021/09/23 02:26:05;;;;;;;5.10;3.63;;;;;;;6.18;99.60;99727.31;5052768;28;20040;-79
2021/09/23 02:28:32;;;;;;;6.47;4.07;;;;;;;6.43;99.02;99734.97;5052978;28;20052;-79
2021/09/23 02:31:00;;;;;;;6.47;3.70;;;;;;;6.14;99.07;99725.91;5052508;28;20045;-79
2021/09/23 02:33:27;;;;;;;9.98;3.78;;;;;;;6.03;100.00;99732.28;5050741;28;20140;-79
2021/09/23 02:35:54;;;;;;;8.02;3.65;;;;;;;5.98;100.00;99733.72;5052312;28;20427;-79
2021/09/23 02:38:20;;;;;;;5.30;3.83;;;;;;;5.98;99.94;99704.03;5052391;28;20455;-80
2021/09/23 02:40:50;;;;;;;7.13;3.97;;;;;;;5.96;100.00;99701.44;5052502;28;20123;-80
2021/09/23 02:43:18;;;;;;;7.45;4.20;;;;;;;6.17;100.00;99731.03;5052793;28;20053;-80
2021/09/23 02:45:45;;;;;;;7.88;3.47;;;;;;;6.24;100.00;99712.41;5051831;28;20377;-80
2021/09/23 02:48:14;;;;;;;4.95;3.90;;;;;;;6.21;100.00;99709.97;5052650;28;20385;-80
2021/09/23 02:50:43;;;;;;;8.80;4.35;;;;;;;6.19;100.00;99706.59;5050956;28;20045;-80
2021/09/23 02:53:10;;;;;;;9.55;4.20;;;;;;;6.30;100.00;99703.72;5052861;28;20037;-80
2021/09/23 02:55:37;;;;;;;5.32;3.75;;;;;;;6.28;100.00;99694.03;5051611;28;20049;-80
2021/09/23 02:58:03;;;;;;;8.13;3.65;;;;;;;6.26;100.00;99694.19;5052382;28;20044;-79
2021/09/23 03:00:30;;;;;;;5.32;3.47;;;;;;;6.24;100.00;99706.16;5052336;28;20114;-79
2021/09/23 03:02:57;;;;;;;4.35;3.53;;;;;;;6.11;100.00;99698.34;5052746;28;20059;-79
2021/09/23 03:05:25;;;;;;;5.20;3.72;;;;;;;6.16;100.00;99702.31;5051977;28;20459;-79
2021/09/23 03:07:52;;;;;;;6.70;3.75;;;;;;;6.18;100.00;99688.66;5052324;28;20053;-79
2021/09/23 03:10:19;;;;;;;4.43;3.58;;;;;;;6.16;100.00;99694.22;5051417;28;20045;-79
2021/09/23 03:12:45;;;;;;;4.07;3.30;;;;;;;6.22;100.00;99690.09;5052236;28;20458;-79
2021/09/23 03:15:12;;;;;;;5.38;3.15;;;;;;;6.08;100.00;99667.09;5051822;28;20463;-79
2021/09/23 03:17:41;;;;;;;6.38;3.42;;;;;;;6.12;100.00;99683.84;5052147;28;20044;-80
2021/09/23 03:20:08;;;;;;;7.20;3.03;;;;;;;6.08;100.00;99677.91;5051890;28;20052;-79
2021/09/23 03:22:37;;;;;;;5.82;3.10;;;;;;;5.98;100.00;99659.00;5051774;28;20471;-79
2021/09/23 03:25:04;;;;;;;5.82;3.13;;;;;;;5.97;100.00;99672.63;5051168;28;20052;-79
2021/09/23 03:27:31;;;;;;;4.28;3.00;;;;;;;6.03;100.00;99672.06;5051784;28;20056;-79
2021/09/23 03:29:58;;;;;;;4.32;2.97;;;;;;;6.10;99.68;99677.75;5052098;28;20078;-79
2021/09/23 03:32:24;;;;;;;5.28;2.92;;;;;;;5.98;99.08;99668.94;5051813;28;20053;-79
2021/09/23 03:34:52;;;;;;;3.50;2.50;;;;;;;6.03;99.11;99680.16;5051597;28;20530;-80
2021/09/23 03:37:18;;;;;;;3.67;2.90;;;;;;;5.87;98.98;99647.47;5051169;28;20041;-79
2021/09/23 03:39:54;;;;;;;3.40;2.90;;;;;;;5.89;99.55;99686.81;5051880;28;20052;-80
2021/09/23 03:42:22;;;;;;;5.45;3.50;;;;;;;5.85;99.58;99666.50;5050883;28;20509;-80
2021/09/23 03:44:49;;;;;;;4.40;3.22;;;;;;;5.76;99.50;99662.78;5050663;28;20464;-80
2021/09/23 03:47:16;;;;;;;5.70;2.95;;;;;;;5.68;99.92;99670.75;5051635;28;20063;-80
2021/09/23 03:49:43;;;;;;;4.63;3.10;;;;;;;5.72;100.00;99671.31;5051327;28;20138;-80
2021/09/23 03:52:09;;;;;;;4.10;2.70;;;;;;;5.61;99.93;99650.72;5051955;28;20056;-80
2021/09/23 03:54:36;;;;;;;5.85;2.80;;;;;;;5.64;99.62;99666.63;5050888;28;20544;-79
2021/09/23 03:57:04;;;;;;;6.88;2.78;;;;;;;5.70;99.59;99673.31;5051822;28;20118;-80
2021/09/23 03:59:31;;;;;;;5.57;3.03;;;;;;;5.82;99.15;99666.78;5055125;28;20057;-80
2021/09/23 04:01:58;;;;;;;4.25;2.92;;;;;;;5.67;99.21;99650.16;5055640;28;20098;-80
2021/09/23 04:04:25;;;;;;;6.65;3.35;;;;;;;5.51;99.07;99645.34;5055172;28;20106;-80
2021/09/23 04:06:51;;;;;;;4.57;2.95;;;;;;;5.69;99.03;99645.50;5054449;28;20098;-80
2021/09/23 04:09:18;;;;;;;7.63;2.97;;;;;;;5.52;99.87;99643.50;5055324;28;20049;-80
2021/09/23 04:11:45;;;;;;;7.82;3.20;;;;;;;5.54;100.00;99650.47;5055175;28;20045;-79
2021/09/23 04:14:13;;;;;;;4.35;2.88;;;;;;;5.46;99.88;99643.03;5056034;28;20044;-79
2021/09/23 04:16:40;;;;;;;4.63;2.50;;;;;;;5.50;100.00;99635.53;5056472;28;20044;-79
2021/09/23 04:19:07;;;;;;;6.28;3.08;;;;;;;5.35;99.80;99612.69;5055405;28;20132;-79
2021/09/23 04:21:34;;;;;;;3.40;2.72;;;;;;;5.41;100.00;99625.59;5055256;28;20059;-80
2021/09/23 04:24:25;;;;;;;;;;;;;;;;;;;;;
2021/09/23 04:26:53;;;;;;;4.95;2.85;;;;;;;5.55;100.00;99627.88;5055303;28;20045;-80
2021/09/23 04:29:21;;;;;;;3.33;2.40;;;;;;;5.56;100.00;99629.56;5055416;28;20451;-81
2021/09/23 04:31:48;;;;;;;4.55;2.85;;;;;;;5.32;100.00;99614.66;5055624;28;20052;-81
2021/09/23 04:34:15;;;;;;;4.35;2.97;;;;;;;5.32;100.00;99614.66;5054701;28;20057;-80
2021/09/23 04:36:41;;;;;;;4.57;3.38;;;;;;;5.29;100.00;99612.22;5054929;28;20491;-80
2021/09/23 04:39:08;;;;;;;7.63;3.47;;;;;;;5.27;100.00;99613.38;5053587;28;20111;-80
2021/09/23 04:41:35;;;;;;;5.80;2.95;;;;;;;5.34;100.00;99606.41;5054402;28;20532;-79
2021/09/23 04:44:02;;;;;;;5.03;2.58;;;;;;;5.30;100.00;99594.22;5054742;28;20411;-81
2021/09/23 04:46:30;;;;;;;7.50;3.53;;;;;;;5.48;100.00;99603.31;5054231;28;20049;-80
2021/09/23 04:48:57;;;;;;;6.60;3.33;;;;;;;5.48;100.00;99597.09;5055101;28;20049;-80
2021/09/23 04:51:26;;;;;;;4.60;3.08;;;;;;;5.50;100.00;99597.78;5054441;28;20045;-80
2021/09/23 04:53:53;;;;;;;3.80;2.67;;;;;;;5.50;100.00;99601.31;5054826;28;20455;-80
2021/09/23 04:56:20;;;;;;;11.65;4.43;;;;;;;5.36;100.00;99582.88;5054716;28;20053;-80
2021/09/23 04:58:47;;;;;;;5.88;4.00;;;;;;;5.53;100.00;99596.66;5053124;28;20048;-80
2021/09/23 05:01:14;;;;;;;5.32;3.58;;;;;;;5.57;100.00;99598.94;5054683;28;20100;-81
2021/09/23 05:03:42;;;;;;;4.35;3.33;;;;;;;5.50;100.00;99576.22;5054472;28;20048;-81
2021/09/23 05:06:09;;;;;;;5.60;3.70;;;;;;;5.47;100.00;99569.25;5054232;28;20064;-80
2021/09/23 05:08:36;;;;;;;6.10;3.30;;;;;;;5.45;100.00;99579.34;5054352;28;20053;-80
2021/09/23 05:11:03;;;;;;;5.20;3.65;;;;;;;5.73;100.00;99589.41;5053764;28;20500;-80
2021/09/23 05:13:30;;;;;;;6.43;4.00;;;;;;;5.77;100.00;99597.06;5054458;28;20057;-80
2021/09/23 05:16:00;;;;;;;9.90;3.60;;;;;;;5.64;100.00;99580.31;5053827;28;20049;-80
2021/09/23 05:18:27;;;;;;;9.52;4.18;;;;;;;5.65;100.00;99572.06;5036137;28;20390;-80
2021/09/23 05:20:55;;;;;;;4.70;3.75;;;;;;;5.82;100.00;99586.69;5054531;28;20048;-82
2021/09/23 05:23:22;;;;;;;7.00;4.15;;;;;;;5.93;100.00;99585.69;5054823;28;20584;-79
2021/09/23 05:25:48;;;;;;;7.43;4.47;;;;;;;5.92;100.00;99585.84;5055497;28;20102;-80
2021/09/23 05:28:15;;;;;;;9.55;4.60;;;;;;;5.84;100.00;99568.50;5054775;28;20049;-80
2021/09/23 05:30:42;;;;;;;9.95;4.75;;;;;;;5.83;100.00;99563.25;5054227;28;20104;-80
2021/09/23 05:33:11;;;;;;;9.68;5.03;;;;;;;5.87;100.00;99564.66;5053969;28;20045;-80
2021/09/23 05:35:38;;;;;;;11.55;4.53;;;;;;;5.80;100.00;99550.91;5053986;28;20052;-80
2021/09/23 05:38:06;;;;;;;17.90;5.80;;;;;;;6.03;100.00;99558.69;5054066;28;20056;-80
2021/09/23 05:40:33;;;;;;;15.77;5.35;;;;;;;6.02;100.00;99530.00;5054321;28;20060;-80
2021/09/23 05:43:00;;;;;;;13.55;4.97;;;;;;;6.16;100.00;99547.59;5053037;28;20049;-80
2021/09/23 05:45:27;;;;;;;14.55;5.05;;;;;;;6.15;100.00;99541.31;5053701;28;20061;-80
2021/09/23 05:47:54;;;;;;;9.68;5.88;;;;;;;6.23;100.00;99534.34;5053604;28;20052;-80
2021/09/23 05:50:21;;;;;;;12.43;6.43;;;;;;;6.20;100.00;99519.28;5053752;28;20045;-80
2021/09/23 05:52:48;;;;;;;14.40;5.78;;;;;;;6.40;100.00;99528.16;5053608;28;20048;-80
2021/09/23 05:55:16;;;;;;;9.60;5.68;;;;;;;6.37;100.00;99526.59;5053653;28;20107;-80
2021/09/23 05:57:43;;;;;;;11.48;5.43;;;;;;;6.44;100.00;99524.16;5053706;28;20049;-80
2021/09/23 06:00:13;;;;;;;18.88;5.90;;;;;;;6.81;100.00;99550.28;5053103;28;20061;-80
2021/09/23 06:02:40;;;;;;;9.10;5.80;;;;;;;6.85;100.00;99553.50;5053762;28;20107;-80
2021/09/23 06:05:08;;;;;;;11.63;5.97;;;;;;;7.09;100.00;99566.44;5053357;28;20087;-80
2021/09/23 06:07:35;;;;;;;12.35;6.13;;;;;;;7.30;100.00;99579.72;5053615;28;20489;-80
2021/09/23 06:10:02;;;;;;;11.38;5.97;;;;;;;7.33;100.00;99565.00;5053211;28;20045;-80
2021/09/23 06:12:30;;;;;;;11.70;6.20;;;;;;;7.51;100.00;99582.09;5053287;28;20048;-80
2021/09/23 06:14:57;;;;;;;9.93;5.38;;;;;;;7.54;100.00;99583.63;5053012;28;20057;-80
2021/09/23 06:17:23;;;;;;;10.43;6.90;;;;;;;7.41;100.00;99565.94;5053072;28;20048;-81
2021/09/23 06:19:50;;;;;;;10.10;6.57;;;;;;;7.24;100.00;99555.94;5053635;28;20057;-80
2021/09/23 06:22:17;;;;;;;11.13;6.85;;;;;;;7.27;100.00;99558.34;5051966;28;20048;-80
2021/09/23 06:24:44;;;;;;;13.00;6.07;;;;;;;7.29;100.00;99558.19;5053088;28;20048;-80
2021/09/23 06:27:11;;;;;;;18.15;5.97;;;;;;;7.29;100.00;99558.19;5052890;28;20049;-80
2021/09/23 06:29:39;;;;;;;10.13;5.00;;;;;;;7.42;100.00;99577.59;5052942;28;20057;-80
2021/09/23 06:32:07;;;;;;;11.57;6.25;;;;;;;7.49;100.00;99559.75;5052173;28;20048;-80
2021/09/23 06:34:34;;;;;;;13.65;6.70;;;;;;;7.48;100.00;99547.22;5052983;28;20183;-80
2021/09/23 06:37:01;;;;;;;12.60;6.00;;;;;;;7.73;100.00;99563.69;5052568;28;20480;-80
2021/09/23 06:39:27;;;;;;;11.75;6.28;;;;;;;7.82;100.00;99553.75;5052776;28;20051;-80
2021/09/23 06:41:56;;;;;;;11.52;6.85;;;;;;;8.03;100.00;99535.28;5052887;28;20045;-80
2021/09/23 06:44:23;;;;;;;10.35;7.03;;;;;;;8.45;100.00;99553.50;5052527;28;20052;-80
2021/09/23 06:46:54;;;;;;;10.43;5.57;;;;;;;8.61;100.00;99541.03;5053056;28;20048;-80
2021/09/23 06:49:23;;;;;;;13.05;7.05;;;;;;;8.86;100.00;99544.69;5052627;28;20199;-81
2021/09/23 06:51:53;;;;;;;9.20;5.78;;;;;;;8.92;100.00;99527.75;5052595;28;20484;-80
2021/09/23 06:54:20;;;;;;;8.30;6.03;;;;;;;8.98;100.00;99534.41;5052460;28;20041;-80
2021/09/23 06:56:47;;;;;;;9.50;6.28;;;;;;;9.02;100.00;99517.63;5052596;28;20053;-80
2021/09/23 06:59:13;;;;;;;9.85;5.95;;;;;;;9.15;100.00;99516.28;5052587;28;20045;-80
2021/09/23 07:01:40;;;;;;;14.90;7.07;;;;;;;9.38;100.00;99532.78;5052248;28;20055;-80
2021/09/23 07:04:09;;;;;;;10.65;6.78;;;;;;;9.50;100.00;99522.41;5052261;28;20052;-80
2021/09/23 07:06:36;;;;;;;16.40;6.53;;;;;;;9.69;100.00;99523.94;5051175;28;20056;-80
2021/09/23 07:09:03;;;;;;;13.43;6.13;;;;;;;9.84;100.00;99516.81;5052532;28;20068;-81
2021/09/23 07:11:30;;;;;;;15.70;6.13;;;;;;;10.04;100.00;99524.59;5052298;28;20049;-81
2021/09/23 07:13:57;;;;;;;8.85;6.60;;;;;;;10.12;100.00;99521.00;5052618;28;20053;-81
2021/09/23 07:16:24;;;;;;;10.40;5.88;;;;;;;10.47;100.00;99536.06;5051841;28;20049;-81
2021/09/23 07:18:51;;;;;;;16.40;6.32;;;;;;;10.57;100.00;99527.72;5052299;28;20443;-80
2021/09/23 07:21:19;;;;;;;12.93;7.18;;;;;;;10.67;100.00;99506.56;5052084;28;20082;-80
2021/09/23 07:23:46;;;;;;;17.85;5.65;;;;;;;10.81;100.00;99526.75;5051736;28;20055;-81
2021/09/23 07:26:13;;;;;;;10.05;5.43;;;;;;;10.91;98.90;99526.53;5051854;28;20420;-81
2021/09/23 07:28:39;;;;;;;10.18;6.18;;;;;;;11.05;97.72;99525.78;5052472;28;20175;-81
2021/09/23 07:31:06;;;;;;;14.15;4.80;;;;;;;11.22;97.48;99545.56;5052098;28;20139;-81
2021/09/23 07:33:33;;;;;;;10.98;4.57;;;;;;;11.31;97.24;99536.31;5051589;28;20481;-81
2021/09/23 07:36:00;;;;;;;14.48;4.30;;;;;;;11.48;96.31;99541.63;5051583;28;20056;-81
2021/09/23 07:38:28;;;;;;;12.15;4.80;;;;;;;11.53;96.41;99547.38;5051716;28;20045;-81
2021/09/23 07:40:55;;;;;;;11.57;4.53;;;;;;;11.57;94.98;99539.69;5051759;28;20045;-81
2021/09/23 07:43:23;;;;;;;13.27;5.20;;;;;;;11.71;93.84;99538.06;5051837;28;20049;-81
2021/09/23 07:45:50;;;;;;;13.95;4.45;;;;;;;11.84;93.41;99538.28;5051666;28;20053;-81
2021/09/23 07:48:17;;;;;;;15.05;4.75;;;;;;;11.92;91.99;99556.44;5051628;28;20055;-80
2021/09/23 07:50:44;;;;;;;15.55;4.78;;;;;;;12.13;92.63;99572.94;5052013;28;20106;-80
2021/09/23 07:53:11;;;;;;;6.28;4.70;;;;;;;12.19;90.55;99574.09;5051700;28;20049;-80
2021/09/23 07:55:39;;;;;;;24.85;5.20;;;;;;;12.19;89.55;99560.47;5050893;28;20059;-80
2021/09/23 07:58:06;;;;;;;12.23;5.05;;;;;;;12.30;89.20;99549.13;5051758;28;20045;-80
2021/09/23 08:00:33;;;;;;;7.88;4.50;;;;;;;12.40;88.82;99557.00;5051804;28;20048;-80
2021/09/23 08:03:00;;;;;;;9.32;4.95;;;;;;;12.39;89.15;99555.34;5051889;28;20052;-80
2021/09/23 08:05:29;;;;;;;9.48;5.30;;;;;;;12.42;87.36;99548.63;5051321;28;20037;-80
2021/09/23 08:07:56;;;;;;;11.57;5.18;;;;;;;12.66;88.03;99564.72;5051720;28;20052;-80
2021/09/23 08:10:23;;;;;;;13.43;5.82;;;;;;;12.59;89.57;99546.59;5051543;28;20049;-80
2021/09/23 08:12:52;;;;;;;8.73;4.47;;;;;;;12.67;87.94;99543.75;5051801;28;20049;-80
2021/09/23 08:15:18;;;;;;;10.23;4.57;;;;;;;12.69;86.80;99553.44;5051428;28;20057;-80
2021/09/23 08:17:45;;;;;;;8.00;4.25;;;;;;;12.74;87.24;99548.25;5051551;28;20398;-80
2021/09/23 08:20:13;;;;;;;6.88;4.65;;;;;;;12.84;88.19;99538.91;5051534;28;20466;-80
2021/09/23 08:22:40;;;;;;;12.80;4.88;;;;;;;12.88;87.46;99538.34;5051408;28;20053;-80
2021/09/23 08:25:08;;;;;;;14.73;5.20;;;;;;;13.00;87.62;99540.59;5051289;28;20053;-80
2021/09/23 08:27:35;;;;;;;12.55;5.45;;;;;;;13.05;87.98;99539.00;5051538;28;20049;-80
2021/09/23 08:30:04;;;;;;;10.05;4.28;;;;;;;13.18;86.48;99537.44;5050863;28;20044;-80
2021/09/23 08:32:31;;;;;;;12.63;5.00;;;;;;;13.20;86.53;99521.72;5051772;28;20056;-81
2021/09/23 08:34:58;;;;;;;9.82;4.72;;;;;;;13.32;85.29;99524.78;5051106;28;20292;-80
2021/09/23 08:37:25;;;;;;;7.18;4.72;;;;;;;13.38;86.10;99513.13;5051166;28;20072;-80
2021/09/23 08:39:51;;;;;;;13.30;4.93;;;;;;;13.42;86.14;99508.97;5051385;28;20310;-80
2021/09/23 08:42:19;;;;;;;16.55;6.75;;;;;;;13.45;84.22;99525.78;5051315;28;20052;-81
2021/09/23 08:44:45;;;;;;;8.18;4.40;;;;;;;13.56;84.78;99537.25;5052009;28;20132;-81
2021/09/23 08:47:14;;;;;;;6.20;3.83;;;;;;;13.57;83.58;99534.31;5055104;28;20045;-80
2021/09/23 08:49:41;;;;;;;6.25;3.50;;;;;;;13.63;83.45;99527.22;5055199;28;20439;-81
2021/09/23 08:52:08;;;;;;;6.47;4.00;;;;;;;13.63;83.27;99535.41;5053987;28;20056;-80
2021/09/23 08:54:35;;;;;;;8.88;4.15;;;;;;;13.67;82.21;99531.25;5055154;28;20373;-80
2021/09/23 08:57:02;;;;;;;6.63;4.13;;;;;;;13.72;82.40;99527.94;5054853;28;20053;-80
2021/09/23 08:59:30;;;;;;;7.30;4.07;;;;;;;13.74;80.83;99523.94;5054979;28;20084;-81
2021/09/23 09:01:59;;;;;;;8.43;4.32;;;;;;;13.80;82.17;99523.19;5054684;28;20060;-80
2021/09/23 09:04:33;;;;;;;9.50;4.05;;;;;;;14.02;81.91;99522.31;5054568;28;20048;-80
2021/09/23 09:07:01;;;;;;;11.45;4.78;;;;;;;14.02;81.22;99508.63;5054691;28;20045;-80
2021/09/23 09:09:29;;;;;;;7.53;4.18;;;;;;;14.18;79.42;99515.66;5054633;28;20058;-80
2021/09/23 09:11:57;;;;;;;7.15;4.32;;;;;;;14.12;79.73;99507.25;5054806;28;20057;-80
2021/09/23 09:14:30;;;;;;;16.35;4.40;;;;;;;14.18;80.75;99494.63;5053282;28;20057;-80
2021/09/23 09:17:03;;;;;;;7.88;4.43;;;;;;;14.32;78.30;99496.41;5054624;28;20045;-80
2021/09/23 09:19:46;;;;;;;7.18;3.72;;;;;;;14.39;79.02;99491.00;5054278;28;20063;-80
2021/09/23 09:22:14;;;;;;;9.45;3.60;;;;;;;14.51;77.56;99494.00;5054438;28;20064;-80
2021/09/23 09:24:58;;;;;;;8.82;3.97;;;;;;;14.47;78.22;99471.69;5053961;28;20052;-81
2021/09/23 09:27:36;;;;;;;9.25;4.45;;;;;;;14.56;77.11;99479.69;5054401;28;20088;-80
2021/09/23 09:30:10;;;;;;;8.73;3.67;;;;;;;14.56;77.81;99477.81;5054219;28;20378;-80
2021/09/23 09:32:40;;;;;;;10.38;4.45;;;;;;;14.58;76.90;99456.56;5053997;28;20056;-80
2021/09/23 09:35:11;;;;;;;8.35;3.72;;;;;;;14.55;77.08;99445.19;5053827;28;20128;-80
2021/09/23 09:37:44;;;;;;;5.47;3.38;;;;;;;14.72;78.60;99441.06;5054329;28;20052;-80
2021/09/23 09:40:15;;;;;;;5.72;3.50;;;;;;;14.90;77.52;99440.50;5054077;28;20048;-80
2021/09/23 09:42:44;;;;;;;6.68;3.08;;;;;;;15.11;77.76;99435.91;5054290;28;20420;-81
2021/09/23 09:45:19;;;;;;;8.60;3.05;;;;;;;15.25;76.07;99439.50;5053648;28;20056;-81
2021/09/23 09:47:52;;;;;;;3.85;2.55;;;;;;;15.43;75.36;99453.47;5053208;28;20045;-80
2021/09/23 09:50:23;;;;;;;7.43;3.63;;;;;;;15.33;73.09;99448.38;5053734;28;20122;-81
2021/09/23 09:52:51;;;;;;;9.30;4.00;;;;;;;15.33;72.65;99464.81;5053870;28;20056;-80
2021/09/23 09:55:19;;;;;;;6.07;3.53;;;;;;;15.22;72.83;99440.81;5053566;28;20053;-81
2021/09/23 09:57:47;;;;;;;6.68;3.30;;;;;;;15.45;73.97;99443.13;5053772;28;20402;-80
2021/09/23 10:02:57;;;;;;;4.65;3.05;;;;;;;15.61;74.37;99435.53;5055062;28;20053;-80
2021/09/23 10:05:25;;;;;;;7.40;4.20;;;;;;;15.72;74.49;99429.44;5054088;28;20443;-81
2021/09/23 10:07:55;;;;;;;6.88;3.50;;;;;;;15.72;74.26;99433.00;5053379;28;20467;-80
2021/09/23 10:10:25;;;;;;;10.20;3.88;;;;;;;15.89;73.27;99440.81;5054387;28;20059;-81
2021/09/23 10:12:55;;;;;;;;;;;;;;;15.84;71.60;99440.63;5053710;28;20447;-81
2021/09/23 10:15:22;;;;;;;13.45;4.13;;;;;;;15.71;71.38;99427.72;5053465;28;19924;-81
2021/09/23 10:17:51;;;;;;;5.90;3.60;;;;;;;15.92;73.21;99437.66;5053437;28;20049;-80
2021/09/23 10:20:25;;;;;;;7.53;3.67;;;;;;;15.90;72.84;99426.91;5052512;28;20052;-81
2021/09/23 10:22:54;;;;;;;6.78;3.70;;;;;;;16.14;72.57;99441.00;5053378;28;20045;-81
2021/09/23 10:25:23;;;;;;;6.85;3.70;;;;;;;16.23;70.83;99428.72;5052433;28;20052;-81
2021/09/23 10:28:00;;;;;;;9.07;4.00;;;;;;;16.40;72.84;99441.97;5053488;28;20424;-81
2021/09/23 10:30:31;;;;;;;9.95;3.50;;;;;;;16.56;70.91;99443.38;5053207;28;20460;-81
2021/09/23 10:32:59;;;;;;;9.65;3.78;;;;;;;16.59;70.35;99441.06;5053364;28;20484;-81
2021/09/23 10:35:29;;;;;;;9.90;3.60;;;;;;;16.53;69.33;99422.72;5052146;28;20055;-81
2021/09/23 10:37:58;;;;;;;11.35;4.50;;;;;;;16.55;68.71;99436.22;5052795;28;20049;-81
2021/09/23 10:40:26;;;;;;;9.43;4.10;;;;;;;16.58;67.93;99433.88;5052608;28;20049;-81
2021/09/23 10:42:55;;;;;;;9.35;4.03;;;;;;;16.55;69.74;99419.75;5053130;28;20052;-81
2021/09/23 10:45:27;;;;;;;27.20;9.60;;;;;;;16.71;69.66;99424.75;5052200;28;20416;-81
2021/09/23 10:47:55;;;;;;;9.27;4.55;;;;;;;16.76;67.85;99415.84;5052912;28;20053;-81
2021/09/23 10:50:25;;;;;;;10.80;5.20;;;;;;;16.74;67.65;99413.34;5053129;28;20056;-81
2021/09/23 10:52:54;;;;;;;17.13;4.95;;;;;;;16.97;68.38;99420.22;5052556;28;20045;-81
2021/09/23 10:55:23;;;;;;;13.88;4.50;;;;;;;16.92;67.37;99414.50;5051501;28;20516;-80
2021/09/23 10:57:50;;;;;;;12.55;4.50;;;;;;;17.03;66.28;99411.09;5052361;28;20120;-80
2021/09/23 11:00:18;;;;;;;6.57;3.92;;;;;;;17.24;67.59;99433.78;5052578;28;20053;-81
2021/09/23 11:02:46;;;;;;;12.70;4.25;;;;;;;17.22;67.46;99422.16;5051907;28;20048;-81
2021/09/23 11:05:14;;;;;;;12.23;5.25;;;;;;;17.37;67.85;99414.41;5052756;28;20061;-81
2021/09/23 11:07:43;;;;;;;8.73;3.97;;;;;;;17.49;67.06;99429.16;5051756;28;20092;-82
2021/09/23 11:10:17;;;;;;;8.13;3.77;;;;;;;17.59;66.68;99423.13;5052366;28;20636;-80
2021/09/23 11:12:47;;;;;;;7.47;3.75;;;;;;;17.67;64.35;99397.25;5052305;28;20486;-81
2021/09/23 11:15:16;;;;;;;11.52;3.47;;;;;;;17.78;63.95;99402.03;5051527;28;20053;-81
2021/09/23 11:17:44;;;;;;;5.03;3.38;;;;;;;17.86;61.06;99398.97;5052411;28;20056;-81
2021/09/23 11:20:13;;;;;;;8.38;3.10;;;;;;;18.01;61.03;99387.63;5052198;28;20397;-82
2021/09/23 11:22:41;;;;;;;10.40;2.63;;;;;;;17.93;59.46;99357.69;5052245;28;20523;-81
2021/09/23 11:25:11;;;;;;;6.50;2.63;;;;;;;18.19;59.91;99370.31;5051741;28;20370;-81
2021/09/23 11:27:42;;;;;;;11.07;3.92;;;;;;;18.20;61.66;99369.25;5052237;28;20056;-81
2021/09/23 11:30:12;;;;;;;10.40;3.10;;;;;;;18.28;59.77;99375.50;5052166;28;20048;-80
2021/09/23 11:32:47;;;;;;;7.63;3.45;;;;;;;18.28;59.55;99359.00;5051402;28;20106;-81
2021/09/23 11:35:14;;;;;;;7.57;3.35;;;;;;;18.48;58.02;99358.72;5051308;28;20059;-80
2021/09/23 11:37:41;;;;;;;7.63;2.40;;;;;;;18.55;56.94;99357.56;5051864;28;20060;-81
2021/09/23 11:40:10;;;;;;;5.32;2.97;;;;;;;18.57;56.91;99344.41;5051937;28;20049;-80